Timeline UpdatesTrip UpdatesNews PostsPvt PostsTravel TipsAdmin PostsConv PostsFollowed PostsChat RequestsBlog PostsPNR Posts

Disclaimer
Search
 
 
Wed Jul 23, 2014 19:29:08 ISTHomeTrainsΣChainsAtlasPNRForumGalleryNewsFAQTripsMembersLoginFeedback
No Recent News for this Train
Other Trains in the News **new
Latest...
Last run over.
Tue Jul 01, 2014 (04:19PM)
⇐ Return Journey: Train# 13112

13111/Lal Quila Express

TRAIN IS CANCELLED
Change Departure Station:
Change Arrival Station:
Post a Train Travel TipPost a Train Travel Tip **new
Post a Comment/Question/Picture/VideoPost a Comment/Question/Picture/Video
Pantry/Catering
✕ NO Pantry Car
✓ Catering Avbl
RSA - Rake Sharing
Rake/Coach Composition
LOCO-S1-B1-SLR-GEN-S2-S3-S4-B2-GEN-GEN-RMS-SLR [S1,B1 detached at MDP] ; :Entry# 618089-32
Loco
WAP4 HOWRAH/GHAZIABAD SHED
Train will Run till Jun 30 (subject to further announcements)
News    PNR    Forum    Time-Table    Availability    Fare Chart    Map    Arr/Dep History    Trips    Gallery    ΣChains    X/O    Timeline    
Travel Time: 20h 46m    48 halts    Distance: 996 km    Avg Speed: 47 km/hr
Type: Mail/Express
Zone: ER/Eastern
Departs @ 20:15
Platform# 3
SMTWTFS
Kolkata Chitpur/KOAA 
Arrives @ 17:01 +1 night
Platform# ???
SMTWTFS
Rasulabad/RUB 

48 halts. 213 intermediate Stations between Kolkata Chitpur and Rasulabad

Show ALL intermediate Stations  Show Old Time-Table

#CodeStation NameX/OArrivesAvgDepartsAvgHaltPFDay#KmSpeedElevZoneAddress
1KOAA»Kolkata Chitpur (5)»  -20:15-310.0316mERKolkata, West Bengal
2DAKEDakhineswar (2)  20:34-20:35-1m119.96410mERDist - 24 paraganas ( North ), West Bengal
3BWNBarddhaman Junction (8)  21:58-22:03-5m1198.68434mERDist - Barddhaman, West Bengal
4RNGRaniGanj (4)  23:06-23:07-1m21186.45492mERRaniganj, West Bengal
5ASNAsansol Junction (7)  23:27-23:32-5m41204.650113mERDist - bardhaman, West Bengal
6CRJChittaranjan (3)  00:02-00:03-1m32229.766182mERMihijam, Jharkhand
7JMTJamtara (2)  00:16-00:17-1m12244.059201mERJamtara, Jharkhand
8MDPMadhupur Junction (4)01:00-01:40-40m22286.073254mER06432-224478, Jharkhand
9JSMEJasidih Junction (5)  02:04-02:09-5m22315.152271mERJasidih, Jharkhand
10JAJJhajha (4)  03:00-03:05-5m--2359.274143mECRJhajha, Bihar
11JMUJamui (3)  03:26-03:27-1m--2385.26881mECRState Highway 72, Bihar
12KIULKiul Junction (5)  03:51-03:55-4m--2412.51253mECRDist. Lakhisarai, Bihar
13LKRLuckeesarai Junction (2)  04:02-04:03-1m--2413.96552mECRLakhisarai, Bihar
14BRYABarhiya (3)  04:17-04:18-1m--2429.05947mECRBarahiya, Bihar
15MKAMokama Junction (3)  04:36-04:40-4m--2446.78648mECRPatna, Bihar
16BARHBarh (3)  04:58-04:59-1m--2472.66849mECRBarh, Bihar
17BKPBakhtiyarpur Junction (5)  05:15-05:19-4m--2490.97751mECRPatna, Bihar
18FUTFatwa (6)  05:37-05:38-1m--2513.94653mECRPatna, Bihar
19BKGBanka Ghat (2)  05:46-05:47-1m--2520.05356mECRPatna, Bihar
20PNCPatna Saheb (3)  05:54-05:55-1m--2526.12059mECRPatna, Bihar
21GZHGulzarbagh (3)  06:04-06:05-1m--2529.22855mECRPatna, Bihar
22RJPBRajendra Nagar Bihar (4)  06:14-06:16-2m--2533.4555mECRPatna 800001, Bihar
23PNBEPatna Junction (10)  06:50-07:00-10m42536.03857mECRPatna 800001, Bihar
24DNRDanapur (5)  07:15-07:35-20m--2545.48758mECRKhagaul, Bihar
25BTABihta (2)  07:47-07:48-1m--2562.75862mECRDistt: Patna, Bihar
26KWRKoelwar (2)  07:57-07:58-1m--2571.54365mECRNational Highway 30, Bihar
27KUAKulharia (2)  08:03-08:04-1m--2575.05461mECRChandi Sahar Rd, Bihar
28ARAAra Junction (3)  08:15-08:20-5m--2584.99263mECRarrah( 06182-233411), Bihar
29BEABihiya (3)  08:34-08:35-1m--2606.35167mECRBehea, Bihar
30BYNBanahi (2)  08:42-08:43-1m--2612.35967mECRBanahi, Bihar
31RPRRaghunathpur (4)  08:52-08:53-1m--2621.17469mECRRaghunathpur, Bihar
32DUREDumraon (3)  09:06-09:07-1m--2637.12970mECRDumraon, Bihar
33BXRBuxar (3)  09:41-09:46-5m22653.47367mECRBuxar, Bihar
34CSAChausa (2)  09:55-09:56-1m--2664.44368mECRState Highway 14, Bihar
35GMRGahmar (2)  10:09-10:10-1m--2673.63868mECRDistt: Ghazipur, Uttar Pradesh
36BWHBhadaura (2)  10:23-10:24-1m--2681.84769mECRGhazipur, Uttar Pradesh
37DLNDildarnagar Junction (2)  10:34-10:36-2m--2689.64072mECRDildarnagar, Uttar Pradesh
38ZNAZamania (2)  10:56-10:57-1m--2703.13877mECRGhazipur, Uttar Pradesh
39MGSMughal Sarai Junction (8)  12:07-12:27-20m42747.35383mECRMughalsarai 232101, Uttar Pradesh
40CARChunar Junction (5)  13:03-13:04-1m22779.25485mNCRChunar Junction, Uttar Pradesh
41MZPMirzapur (3)  13:39-13:40-1m--2810.54088mNCRMirzapur, Uttar Pradesh
42BDLVindhyachal (3)  13:51-13:52-1m--2817.87288mNCRMirzapur, Uttar Pradesh
43MNFManda Road  14:15-14:16-1m--2845.46593mNCRNH 76, Uttar Pradesh
44MJAMeja Road (4)  14:31-14:32-1m--2861.67294mNCRDistrict Allahabad, Uttar Pradesh
45NYNNaini Junction (4)  14:58-15:00-2m22892.62198mNCRAllahabad, Uttar Pradesh
46ALDAllahabad Junction (10)  15:20-15:30-10m32899.760100mNCRAllahabad 211003, Uttar Pradesh
47BREBharwari  16:07-16:08-1m--2936.864108mNCRBharwari, Uttar Pradesh
48SROSirathu (2)  16:27-16:28-1m12956.978109mNCRSirathu, Uttar Pradesh
49KGAKhaga (3)  16:47-16:48-1m--2981.867114mNCRFatehpur, Uttar Pradesh
50RUB•Rasulabad•  17:01-17:02-1m--2996.355118mNCRRasulabad, Uttar Pradesh
51FTPFatehpur (3)  17:24-17:25-1m321016.469120mNCRFatehpur, Uttar Pradesh
52MWHMalwan (2)  17:39-17:40-1m--21032.665122mNCRFatehpur, Uttar Pradesh
53BKOBindki Road  17:54-17:55-1m--21047.753124mNCRFatehpur, Uttar Pradesh
54KBNKarbigwan  18:09-18:10-1m--21060.045121mNCRFatehpur, Uttar Pradesh
55CNBKanpur Central (10)  18:55-19:05-10m--21094.119128mNCRKANPUR-208 001, Uttar Pradesh
56GOYGovindpuri Junction (2)  19:17-19:18-1m121097.846129mNCRKANPUR-208 006, Uttar Pradesh
57PNKPanki (3)  19:28-19:29-1m--21105.578129mNCRKANPUR-208 020, Uttar Pradesh
58PHDPhaphund (4)  20:24-20:25-1m321177.199146mNCRdist. Auraiya, Uttar Pradesh
59ETWEtawah (5)  20:59-21:00-1m221233.385154mNCRDistt. Etawah, Uttar Pradesh
60SKBShikohabad Junction (4)  21:39-21:40-1m321288.729166mNCRDistrict Firozabad, Uttar Pradesh
61FZDFirozabad (4)  22:21-22:22-1m321308.643164mNCRFirozabad, Uttar Pradesh
62TDLTundla Junction (5)  22:45-22:55-10m221325.182167mNCRDistt.Firozabad, Uttar Pradesh
63HRSHathras Junction (3)  23:30-23:31-1m--21373.167183mNCRMahamaya Nagar(05722-242803), Uttar Pradesh
64ALJNAligarh Junction (4)  23:58-00:03-5m321403.371192mNCRAligarh, Uttar Pradesh
65KRJKhurja Junction (4)  00:40-00:45-5m231446.838199mNCRBulandshahr, Uttar Pradesh
66GZBGhaziabad Junction (6)  02:23-02:25-2m531509.427217mNRGhaziabad, Uttar Pradesh
67DLIOld Delhi Junction (16)  03:10--731529.5-219mNRNear Chandni Chowk Metro Station, Delhi NCT
Scroll to Top
Scroll to Bottom